createdAt,value
2018-09-20T00:00:39.658Z,20.70
2018-09-20T00:05:44.015Z,20.70
2018-09-20T00:10:48.226Z,20.60
2018-09-20T00:15:52.427Z,20.60
2018-09-20T00:20:56.612Z,20.70
2018-09-20T00:26:00.901Z,20.60
2018-09-20T00:31:05.255Z,20.60
2018-09-20T00:36:09.336Z,20.50
2018-09-20T00:41:13.560Z,20.40
2018-09-20T00:46:17.743Z,20.50
2018-09-20T00:51:22.084Z,20.50
2018-09-20T00:56:26.313Z,20.40
2018-09-20T01:01:30.531Z,20.40
2018-09-20T01:06:34.702Z,20.40
2018-09-20T01:11:39.192Z,20.40
2018-09-20T01:16:43.425Z,20.30
2018-09-20T01:21:47.647Z,20.20
2018-09-20T01:39:43.801Z,20.00
2018-09-20T01:44:48.262Z,19.90
2018-09-20T01:49:52.584Z,19.80
2018-09-20T01:54:57.009Z,20.00
2018-09-20T02:00:01.451Z,19.80
2018-09-20T02:05:12.335Z,19.80
2018-09-20T02:10:16.845Z,19.90
2018-09-20T02:15:21.260Z,19.80
2018-09-20T02:20:25.571Z,19.80
2018-09-20T02:25:29.968Z,19.80
2018-09-20T02:30:34.278Z,19.70
2018-09-20T02:35:38.645Z,19.60
2018-09-20T02:40:43.042Z,19.70
2018-09-20T02:45:47.470Z,19.50
2018-09-20T02:56:59.321Z,19.70
2018-09-20T03:02:03.654Z,19.60
2018-09-20T03:07:08.027Z,19.50
2018-09-20T03:12:12.381Z,19.40
2018-09-20T03:17:16.985Z,19.50
2018-09-20T03:22:21.519Z,19.40
2018-09-20T03:27:26.369Z,19.40
2018-09-20T03:32:32.064Z,19.40
2018-09-20T03:37:36.671Z,19.30
2018-09-20T03:42:41.381Z,19.40
2018-09-20T03:47:45.966Z,19.30
2018-09-20T03:52:52.670Z,19.20
2018-09-20T03:57:57.210Z,19.20
2018-09-20T04:03:02.029Z,19.20
2018-09-20T04:08:06.500Z,19.00
2018-09-20T04:13:11.094Z,19.00
2018-09-20T04:18:15.714Z,19.20
2018-09-20T04:23:20.212Z,19.00
2018-09-20T04:28:27.712Z,19.10
2018-09-20T04:33:33.423Z,19.00
2018-09-20T04:38:39.054Z,19.00
2018-09-20T04:43:43.666Z,19.00
2018-09-20T04:48:48.339Z,19.00
2018-09-20T04:53:52.987Z,19.00
2018-09-20T04:58:57.618Z,19.10
2018-09-20T05:04:02.155Z,19.00
2018-09-20T05:09:12.243Z,19.10
2018-09-20T05:14:17.954Z,19.10
2018-09-20T05:19:24.670Z,19.10
2018-09-20T05:24:29.320Z,19.10
2018-09-20T05:29:35.889Z,19.10
2018-09-20T05:34:40.456Z,19.10
2018-09-20T05:39:45.188Z,19.00
2018-09-20T05:44:49.926Z,19.00
2018-09-20T05:49:54.255Z,19.00
2018-09-20T05:54:59.825Z,19.10
2018-09-20T06:00:04.538Z,19.20
2018-09-20T06:05:09.107Z,19.10
2018-09-20T06:10:13.627Z,19.20
2018-09-20T06:15:19.138Z,19.20
2018-09-20T06:26:13.803Z,19.20
2018-09-20T06:31:17.988Z,19.30
2018-09-20T06:36:22.324Z,19.30
2018-09-20T06:41:26.650Z,19.50
2018-09-20T06:46:30.899Z,19.40
2018-09-20T06:51:35.164Z,19.50
2018-09-20T06:56:39.422Z,19.50
2018-09-20T07:01:43.654Z,19.50
2018-09-20T07:06:48.027Z,19.60
2018-09-20T07:11:52.218Z,19.50
2018-09-20T07:16:56.455Z,19.60
2018-09-20T07:22:00.729Z,19.70
2018-09-20T07:27:04.955Z,19.70
2018-09-20T07:32:09.083Z,19.80
2018-09-20T07:37:13.361Z,19.80
2018-09-20T07:42:17.561Z,19.90
2018-09-20T07:47:21.783Z,19.90
2018-09-20T07:52:26.067Z,20.00
2018-09-20T07:57:30.988Z,20.10
2018-09-20T08:02:35.206Z,20.20
2018-09-20T08:07:39.392Z,20.30
2018-09-20T08:12:43.636Z,20.50
2018-09-20T08:17:47.823Z,20.60
2018-09-20T08:22:52.035Z,20.70
2018-09-20T08:27:56.339Z,20.80
2018-09-20T08:33:00.831Z,20.90
2018-09-20T08:38:04.952Z,21.10
2018-09-20T08:43:09.107Z,21.10
2018-09-20T08:48:13.316Z,21.20
2018-09-20T08:53:17.561Z,21.50
2018-09-20T08:58:21.783Z,21.60
2018-09-20T09:03:26.030Z,21.60
2018-09-20T09:08:30.276Z,21.70
2018-09-20T09:13:34.582Z,22.00
2018-09-20T09:18:38.855Z,22.50
2018-09-20T09:23:43.089Z,22.80
2018-09-20T09:28:47.443Z,22.60
2018-09-20T09:33:51.907Z,22.80
2018-09-20T09:38:56.278Z,23.10
2018-09-20T09:44:00.569Z,23.40
2018-09-20T09:49:04.692Z,23.30
2018-09-20T09:54:08.877Z,23.60
2018-09-20T09:59:13.128Z,23.60
2018-09-20T10:04:17.366Z,24.00
2018-09-20T10:09:21.609Z,24.00
2018-09-20T10:14:25.810Z,24.40
2018-09-20T10:19:30.008Z,24.30
2018-09-20T10:24:34.304Z,24.70
2018-09-20T10:29:38.517Z,24.40
2018-09-20T10:34:42.828Z,24.90
2018-09-20T10:39:47.016Z,24.70
2018-09-20T10:44:51.303Z,24.90
2018-09-20T10:49:55.494Z,25.00
2018-09-20T10:54:59.728Z,25.20
2018-09-20T11:00:03.940Z,24.90
2018-09-20T11:05:08.068Z,25.30
2018-09-20T11:10:12.316Z,25.70
2018-09-20T11:15:16.815Z,25.90
2018-09-20T11:20:21.012Z,26.00
2018-09-20T11:25:25.296Z,26.30
2018-09-20T11:30:29.602Z,26.50
2018-09-20T11:35:33.797Z,25.70
2018-09-20T11:40:38.046Z,26.50
2018-09-20T11:45:42.624Z,26.80
2018-09-20T11:50:46.828Z,25.80
2018-09-20T11:55:51.000Z,25.50
2018-09-20T12:00:55.260Z,26.80
2018-09-20T12:05:59.510Z,27.60
2018-09-20T12:11:03.661Z,26.80
2018-09-20T12:16:07.874Z,27.60
2018-09-20T12:21:12.152Z,27.90
2018-09-20T12:26:16.411Z,27.80
2018-09-20T12:31:20.623Z,28.20
2018-09-20T12:36:24.851Z,28.70
2018-09-20T12:41:29.079Z,28.10
2018-09-20T12:46:33.425Z,28.40
2018-09-20T12:51:37.638Z,27.90
2018-09-20T12:56:41.852Z,28.70
2018-09-20T13:01:46.106Z,28.50
2018-09-20T13:06:50.375Z,28.00
2018-09-20T13:11:54.581Z,28.60
2018-09-20T13:16:58.925Z,28.00
2018-09-20T13:22:03.165Z,28.10
2018-09-20T13:27:07.361Z,27.90
2018-09-20T13:32:11.613Z,27.70
2018-09-20T13:37:15.869Z,28.10
2018-09-20T13:42:20.138Z,28.20
2018-09-20T13:47:24.384Z,28.40
2018-09-20T13:52:28.601Z,28.00
2018-09-20T13:57:32.826Z,28.10
2018-09-20T14:02:37.492Z,28.50
2018-09-20T14:07:41.773Z,28.20
2018-09-20T14:12:46.097Z,27.00
2018-09-20T14:17:50.803Z,28.00
2018-09-20T14:22:55.264Z,27.80
2018-09-20T14:27:59.483Z,28.00
2018-09-20T14:33:03.702Z,27.50
2018-09-20T14:38:07.800Z,27.80
2018-09-20T14:43:12.018Z,27.70
2018-09-20T14:48:16.240Z,27.90
2018-09-20T14:53:20.462Z,27.60
2018-09-20T14:58:24.675Z,27.40
2018-09-20T15:03:28.899Z,27.20
2018-09-20T15:08:33.484Z,27.10
2018-09-20T15:13:37.930Z,27.10
2018-09-20T15:18:42.305Z,27.10
2018-09-20T15:23:46.812Z,27.10
2018-09-20T15:28:51.325Z,27.00
2018-09-20T15:33:56.612Z,26.70
2018-09-20T15:39:01.049Z,26.60
2018-09-20T15:44:05.350Z,26.40
2018-09-20T15:49:09.603Z,26.40
2018-09-20T15:54:13.845Z,26.30
2018-09-20T15:59:18.070Z,26.20
2018-09-20T16:04:22.286Z,26.00
2018-09-20T16:09:26.554Z,25.90
2018-09-20T16:14:30.943Z,25.90
2018-09-20T16:19:35.217Z,25.80
2018-09-20T16:24:39.453Z,25.70
2018-09-20T16:32:05.062Z,25.70
2018-09-20T16:37:23.337Z,25.50
2018-09-20T16:42:28.597Z,25.50
2018-09-20T16:47:33.314Z,25.50
2018-09-20T16:52:37.855Z,25.40
2018-09-20T16:57:42.093Z,25.30
2018-09-20T17:02:46.350Z,25.10
2018-09-20T17:07:51.616Z,25.00
2018-09-20T17:13:03.460Z,24.90
2018-09-20T17:18:20.350Z,24.90
2018-09-20T17:23:35.043Z,24.80
2018-09-20T17:28:49.123Z,24.60
2018-09-20T17:34:06.996Z,24.60
2018-09-20T17:50:03.308Z,24.40
2018-09-20T17:55:12.937Z,24.30
2018-09-20T18:00:25.584Z,24.30
2018-09-20T18:05:32.643Z,24.20
2018-09-20T18:10:46.536Z,24.10
2018-09-20T18:15:58.041Z,23.90
2018-09-20T18:21:13.828Z,24.00
2018-09-20T18:26:36.355Z,24.00
2018-09-20T18:31:47.544Z,23.90
2018-09-20T18:42:25.768Z,23.50
2018-09-20T18:47:48.642Z,23.10
2018-09-20T18:52:53.279Z,23.20
2018-09-20T18:57:57.717Z,23.20
2018-09-20T19:03:04.434Z,23.10
2018-09-20T19:08:11.142Z,23.20
2018-09-20T19:13:15.553Z,23.10
2018-09-20T19:18:20.653Z,23.10
2018-09-20T19:23:25.884Z,23.10
2018-09-20T19:28:30.148Z,23.10
2018-09-20T19:33:34.552Z,23.10
2018-09-20T19:38:38.843Z,23.10
2018-09-20T19:43:43.177Z,22.90
2018-09-20T19:48:47.418Z,22.80
2018-09-20T19:53:51.858Z,22.70
2018-09-20T19:58:56.137Z,22.60
2018-09-20T20:04:00.453Z,22.60
2018-09-20T20:09:11.609Z,22.60
2018-09-20T20:14:16.078Z,22.60
2018-09-20T20:19:21.093Z,22.00
2018-09-20T20:24:25.605Z,22.10
2018-09-20T20:29:30.065Z,22.10
2018-09-20T20:34:34.528Z,22.30
2018-09-20T20:39:39.183Z,22.20
2018-09-20T20:44:43.607Z,22.20
2018-09-20T20:49:48.287Z,22.20
2018-09-20T20:54:52.604Z,22.20
2018-09-20T20:59:56.900Z,22.10
2018-09-20T21:05:01.160Z,22.20
2018-09-20T21:10:05.232Z,22.20
2018-09-20T21:15:09.603Z,22.10
2018-09-20T21:20:14.531Z,22.10
2018-09-20T21:25:18.779Z,22.10
2018-09-20T21:30:23.057Z,22.10
2018-09-20T21:35:27.364Z,22.10
2018-09-20T21:40:31.582Z,22.10
2018-09-20T21:45:35.808Z,22.10
2018-09-20T21:50:40.041Z,22.10
2018-09-20T21:55:44.349Z,22.10
2018-09-20T22:00:48.611Z,22.10
2018-09-20T22:05:52.849Z,22.10
2018-09-20T22:10:57.083Z,22.20
2018-09-20T22:16:01.314Z,22.10
2018-09-20T22:21:05.497Z,22.10
2018-09-20T22:26:09.669Z,22.20
2018-09-20T22:31:13.908Z,22.20
2018-09-20T22:36:18.214Z,22.20
2018-09-20T22:41:22.477Z,22.20
2018-09-20T22:46:26.791Z,22.10
2018-09-20T22:51:31.064Z,22.20
2018-09-20T22:56:35.349Z,22.10
2018-09-20T23:01:39.675Z,22.10
2018-09-20T23:06:43.900Z,22.10
2018-09-20T23:11:48.137Z,22.10
2018-09-20T23:16:52.758Z,22.10
2018-09-20T23:21:57.052Z,22.10
2018-09-20T23:27:01.338Z,22.10
2018-09-20T23:32:05.512Z,22.10
2018-09-20T23:37:09.694Z,22.00
2018-09-20T23:42:13.925Z,22.10
2018-09-20T23:47:18.295Z,22.00
2018-09-20T23:52:22.507Z,22.00
2018-09-20T23:57:27.030Z,22.00
